createdAt,value
2022-12-12T00:00:54.357Z,1002.83
2022-12-12T00:01:54.168Z,1002.79
2022-12-12T00:02:54.281Z,1002.81
2022-12-12T00:03:54.237Z,1002.82
2022-12-12T00:04:54.077Z,1002.83
2022-12-12T00:05:54.050Z,1002.81
2022-12-12T00:06:54.017Z,1002.80
2022-12-12T00:07:54.067Z,1002.82
2022-12-12T00:08:53.963Z,1002.80
2022-12-12T00:09:53.923Z,1002.81
2022-12-12T00:10:53.890Z,1002.82
2022-12-12T00:11:53.875Z,1002.81
2022-12-12T00:12:53.830Z,1002.79
2022-12-12T00:13:53.840Z,1002.82
2022-12-12T00:14:53.770Z,1002.80
2022-12-12T00:15:53.798Z,1002.85
2022-12-12T00:16:53.708Z,1002.82
2022-12-12T00:17:53.681Z,1002.82
2022-12-12T00:18:53.646Z,1002.82
2022-12-12T00:19:53.617Z,1002.80
2022-12-12T00:20:53.588Z,1002.85
2022-12-12T00:21:53.555Z,1002.83
2022-12-12T00:22:53.523Z,1002.82
2022-12-12T00:23:53.499Z,1002.85
2022-12-12T00:24:53.464Z,1002.89
2022-12-12T00:25:53.436Z,1002.85
2022-12-12T00:26:53.401Z,1002.92
2022-12-12T00:27:53.370Z,1002.89
2022-12-12T00:28:53.369Z,1002.87
2022-12-12T00:29:53.361Z,1002.90
2022-12-12T00:30:53.344Z,1002.79
2022-12-12T00:31:53.255Z,1002.86
2022-12-12T00:32:53.224Z,1002.90
2022-12-12T00:33:53.189Z,1002.87
2022-12-12T00:34:53.156Z,1002.88
2022-12-12T00:35:53.125Z,1002.89
2022-12-12T00:36:53.099Z,1002.90
2022-12-12T00:37:53.069Z,1002.89
2022-12-12T00:38:53.036Z,1002.87
2022-12-12T00:39:53.004Z,1002.87
2022-12-12T00:40:52.973Z,1002.90
2022-12-12T00:41:52.948Z,1002.88
2022-12-12T00:42:52.910Z,1002.88
2022-12-12T00:43:52.883Z,1002.87
2022-12-12T00:44:52.857Z,1002.87
2022-12-12T00:45:52.843Z,1002.86
2022-12-12T00:46:52.823Z,1002.89
2022-12-12T00:47:52.762Z,1002.89
2022-12-12T00:48:52.726Z,1002.86
2022-12-12T00:49:52.699Z,1002.83
2022-12-12T00:50:52.667Z,1002.80
2022-12-12T00:51:52.643Z,1002.82
2022-12-12T00:52:52.605Z,1002.81
2022-12-12T00:53:52.576Z,1002.81
2022-12-12T00:54:52.583Z,1002.84
2022-12-12T00:55:52.517Z,1002.82
2022-12-12T00:56:52.481Z,1002.80
2022-12-12T00:57:52.455Z,1002.84
2022-12-12T00:58:52.423Z,1002.84
2022-12-12T00:59:52.393Z,1002.81
2022-12-12T01:00:52.358Z,1002.87
2022-12-12T01:01:52.410Z,1002.83
2022-12-12T01:02:52.335Z,1002.84
2022-12-12T01:03:52.271Z,1002.86
2022-12-12T01:04:52.240Z,1002.91
2022-12-12T01:05:52.209Z,1002.91
2022-12-12T01:06:52.176Z,1002.91
2022-12-12T01:07:52.176Z,1002.97
2022-12-12T01:08:52.119Z,1002.96
2022-12-12T01:09:52.086Z,1002.94
2022-12-12T01:10:52.052Z,1002.99
2022-12-12T01:11:52.024Z,1003.01
2022-12-12T01:12:52.011Z,1003.03
2022-12-12T01:13:51.962Z,1003.04
2022-12-12T01:14:51.931Z,1003.05
2022-12-12T01:15:51.937Z,1003.08
2022-12-12T01:16:51.868Z,1003.10
2022-12-12T01:17:51.867Z,1003.08
2022-12-12T01:18:51.807Z,1003.08
2022-12-12T01:19:51.778Z,1003.10
2022-12-12T01:20:51.749Z,1003.10
2022-12-12T01:21:51.721Z,1003.08
2022-12-12T01:22:51.684Z,1003.10
2022-12-12T01:23:51.660Z,1003.13
2022-12-12T01:24:51.625Z,1003.14
2022-12-12T01:25:51.597Z,1003.11
2022-12-12T01:26:51.562Z,1003.11
2022-12-12T01:27:51.536Z,1003.05
2022-12-12T01:28:51.504Z,1003.11
2022-12-12T01:29:51.476Z,1003.14
2022-12-12T01:30:51.443Z,1003.10
2022-12-12T01:31:51.410Z,1003.13
2022-12-12T01:32:51.380Z,1003.15
2022-12-12T01:33:51.376Z,1003.16
2022-12-12T01:34:51.323Z,1003.22
2022-12-12T01:35:51.290Z,1003.25
2022-12-12T01:36:51.259Z,1003.24
2022-12-12T01:37:51.230Z,1003.25
2022-12-12T01:38:51.194Z,1003.23
2022-12-12T01:39:51.168Z,1003.29
2022-12-12T01:40:51.135Z,1003.28
2022-12-12T01:41:51.108Z,1003.30
2022-12-12T01:42:51.072Z,1003.27
2022-12-12T01:43:51.051Z,1003.29
2022-12-12T01:44:51.012Z,1003.28
2022-12-12T01:45:50.984Z,1003.31
2022-12-12T01:46:51.030Z,1003.29
2022-12-12T01:47:50.922Z,1003.28
2022-12-12T01:48:50.891Z,1003.28
2022-12-12T01:49:50.879Z,1003.30
2022-12-12T01:50:50.831Z,1003.30
2022-12-12T01:51:50.801Z,1003.38
2022-12-12T01:52:50.773Z,1003.34
2022-12-12T01:53:50.778Z,1003.34
2022-12-12T01:54:50.708Z,1003.37
2022-12-12T01:55:50.677Z,1003.35
2022-12-12T01:56:50.644Z,1003.33
2022-12-12T01:57:50.618Z,1003.36
2022-12-12T01:58:50.583Z,1003.38
2022-12-12T01:59:50.558Z,1003.37
2022-12-12T02:00:50.549Z,1003.40
2022-12-12T02:01:50.560Z,1003.34
2022-12-12T02:02:50.464Z,1003.36
2022-12-12T02:03:50.434Z,1003.35
2022-12-12T02:04:50.400Z,1003.38
2022-12-12T02:05:50.398Z,1003.32
2022-12-12T02:06:50.339Z,1003.29
2022-12-12T02:07:50.344Z,1003.33
2022-12-12T02:08:50.276Z,1003.31
2022-12-12T02:09:50.250Z,1003.34
2022-12-12T02:10:50.219Z,1003.36
2022-12-12T02:11:50.187Z,1003.34
2022-12-12T02:12:50.155Z,1003.36
2022-12-12T02:13:50.127Z,1003.32
2022-12-12T02:14:50.092Z,1003.35
2022-12-12T02:15:50.124Z,1003.38
2022-12-12T02:16:50.032Z,1003.35
2022-12-12T02:17:50.004Z,1003.38
2022-12-12T02:18:49.972Z,1003.34
2022-12-12T02:19:49.942Z,1003.37
2022-12-12T02:20:49.912Z,1003.33
2022-12-12T02:21:49.899Z,1003.31
2022-12-12T02:22:49.851Z,1003.33
2022-12-12T02:23:49.817Z,1003.31
2022-12-12T02:24:49.785Z,1003.31
2022-12-12T02:25:49.760Z,1003.31
2022-12-12T02:26:49.727Z,1003.35
2022-12-12T02:27:49.695Z,1003.30
2022-12-12T02:28:49.668Z,1003.32
2022-12-12T02:29:49.632Z,1003.34
2022-12-12T02:30:49.606Z,1003.32
2022-12-12T02:31:49.617Z,1003.32
2022-12-12T02:32:49.544Z,1003.32
2022-12-12T02:33:49.512Z,1003.28
2022-12-12T02:34:49.495Z,1003.32
2022-12-12T02:35:49.452Z,1003.35
2022-12-12T02:36:49.421Z,1003.30
2022-12-12T02:37:49.410Z,1003.36
2022-12-12T02:38:49.370Z,1003.31
2022-12-12T02:39:49.366Z,1003.34
2022-12-12T02:40:49.298Z,1003.32
2022-12-12T02:41:49.266Z,1003.34
2022-12-12T02:42:49.237Z,1003.34
2022-12-12T02:43:49.207Z,1003.37
2022-12-12T02:44:49.178Z,1003.39
2022-12-12T02:45:49.146Z,1003.40
2022-12-12T02:46:49.150Z,1003.41
2022-12-12T02:47:49.084Z,1003.44
2022-12-12T02:48:49.057Z,1003.41
2022-12-12T02:49:49.021Z,1003.40
2022-12-12T02:50:48.992Z,1003.40
2022-12-12T02:51:48.960Z,1003.41
2022-12-12T02:52:48.931Z,1003.38
2022-12-12T02:53:48.920Z,1003.39
2022-12-12T02:54:48.878Z,1003.41
2022-12-12T02:55:48.838Z,1003.38
2022-12-12T02:56:48.810Z,1003.42
2022-12-12T02:57:48.775Z,1003.44
2022-12-12T02:58:48.745Z,1003.43
2022-12-12T02:59:48.717Z,1003.40
2022-12-12T03:00:48.788Z,1003.39
2022-12-12T03:01:48.674Z,1003.38
2022-12-12T03:02:48.625Z,1003.39
2022-12-12T03:03:48.591Z,1003.38
2022-12-12T03:04:48.614Z,1003.35
2022-12-12T03:05:48.531Z,1003.37
2022-12-12T03:06:48.500Z,1003.41
2022-12-12T03:07:48.509Z,1003.38
2022-12-12T03:08:48.438Z,1003.38
2022-12-12T03:09:48.426Z,1003.39
2022-12-12T03:10:48.379Z,1003.37
2022-12-12T03:11:48.346Z,1003.38
2022-12-12T03:12:48.318Z,1003.42
2022-12-12T03:13:48.285Z,1003.35
2022-12-12T03:14:48.256Z,1003.40
2022-12-12T03:15:48.220Z,1003.38
2022-12-12T03:16:48.191Z,1003.37
2022-12-12T03:17:48.162Z,1003.39
2022-12-12T03:18:48.130Z,1003.39
2022-12-12T03:19:48.099Z,1003.41
2022-12-12T03:20:48.071Z,1003.41
2022-12-12T03:21:48.037Z,1003.40
2022-12-12T03:22:48.007Z,1003.36
2022-12-12T03:23:47.974Z,1003.36
2022-12-12T03:24:47.952Z,1003.42
2022-12-12T03:25:47.938Z,1003.35
2022-12-12T03:26:47.884Z,1003.32
2022-12-12T03:27:47.852Z,1003.34
2022-12-12T03:28:47.828Z,1003.29
2022-12-12T03:29:47.789Z,1003.29
2022-12-12T03:30:47.759Z,1003.28
2022-12-12T03:31:47.854Z,1003.31
2022-12-12T03:32:47.698Z,1003.33
2022-12-12T03:33:47.670Z,1003.33
2022-12-12T03:34:47.640Z,1003.35
2022-12-12T03:35:47.605Z,1003.40
2022-12-12T03:36:47.577Z,1003.33
2022-12-12T03:37:47.544Z,1003.38
2022-12-12T03:38:47.513Z,1003.34
2022-12-12T03:39:47.484Z,1003.36
2022-12-12T03:40:47.454Z,1003.31
2022-12-12T03:41:47.438Z,1003.31
2022-12-12T03:42:47.391Z,1003.29
2022-12-12T03:43:47.360Z,1003.24
2022-12-12T03:44:47.330Z,1003.29
2022-12-12T03:45:47.349Z,1003.26
2022-12-12T03:46:47.269Z,1003.30
2022-12-12T03:47:47.235Z,1003.26
2022-12-12T03:48:47.206Z,1003.26
2022-12-12T03:49:47.173Z,1003.31
2022-12-12T03:50:47.142Z,1003.30
2022-12-12T03:51:47.111Z,1003.32
2022-12-12T03:52:47.082Z,1003.34
2022-12-12T03:53:47.054Z,1003.32
2022-12-12T03:54:47.023Z,1003.35
2022-12-12T03:55:46.989Z,1003.35
2022-12-12T03:56:46.960Z,1003.33
2022-12-12T03:57:46.945Z,1003.32
2022-12-12T03:58:46.897Z,1003.30
2022-12-12T03:59:46.869Z,1003.34
2022-12-12T04:00:46.848Z,1003.33
2022-12-12T04:01:46.803Z,1003.33
2022-12-12T04:02:46.774Z,1003.28
2022-12-12T04:03:46.743Z,1003.31
2022-12-12T04:04:46.714Z,1003.34
2022-12-12T04:05:46.681Z,1003.32
2022-12-12T04:06:46.668Z,1003.33
2022-12-12T04:07:46.669Z,1003.32
2022-12-12T04:08:46.593Z,1003.35
2022-12-12T04:09:46.556Z,1003.33
2022-12-12T04:10:46.527Z,1003.31
2022-12-12T04:11:46.496Z,1003.36
2022-12-12T04:12:46.466Z,1003.40
2022-12-12T04:13:46.465Z,1003.37
2022-12-12T04:14:46.404Z,1003.40
2022-12-12T04:15:46.372Z,1003.40
2022-12-12T04:16:46.451Z,1003.43
2022-12-12T04:17:46.327Z,1003.41
2022-12-12T04:18:46.281Z,1003.42
2022-12-12T04:19:46.303Z,1003.45
2022-12-12T04:20:46.217Z,1003.43
2022-12-12T04:21:46.188Z,1003.42
2022-12-12T04:22:46.158Z,1003.41
2022-12-12T04:23:46.127Z,1003.48
2022-12-12T04:24:46.097Z,1003.46
2022-12-12T04:25:46.065Z,1003.48
2022-12-12T04:26:46.032Z,1003.53
2022-12-12T04:27:46.001Z,1003.52
2022-12-12T04:28:45.974Z,1003.54
2022-12-12T04:29:45.962Z,1003.48
2022-12-12T04:30:45.916Z,1003.56
2022-12-12T04:31:45.922Z,1003.52
2022-12-12T04:32:45.852Z,1003.54
2022-12-12T04:33:45.817Z,1003.54
2022-12-12T04:34:45.792Z,1003.59
2022-12-12T04:35:45.757Z,1003.58
2022-12-12T04:36:45.727Z,1003.58
2022-12-12T04:37:45.692Z,1003.58
2022-12-12T04:38:45.664Z,1003.60
2022-12-12T04:39:45.632Z,1003.62
2022-12-12T04:40:45.604Z,1003.62
2022-12-12T04:41:45.572Z,1003.62
2022-12-12T04:42:45.541Z,1003.65
2022-12-12T04:43:45.509Z,1003.63
2022-12-12T04:44:45.479Z,1003.63
2022-12-12T04:45:45.522Z,1003.66
2022-12-12T04:46:45.419Z,1003.62
2022-12-12T04:47:45.388Z,1003.66
2022-12-12T04:48:45.357Z,1003.63
2022-12-12T04:49:45.324Z,1003.60
2022-12-12T04:50:45.293Z,1003.59
2022-12-12T04:51:45.261Z,1003.62
2022-12-12T04:52:45.232Z,1003.62
2022-12-12T04:53:45.202Z,1003.65
2022-12-12T04:54:45.168Z,1003.58
2022-12-12T04:55:45.139Z,1003.65
2022-12-12T04:56:45.111Z,1003.66
2022-12-12T04:57:45.076Z,1003.66
2022-12-12T04:58:45.055Z,1003.72
2022-12-12T04:59:45.012Z,1003.72
2022-12-12T05:00:45.058Z,1003.68
2022-12-12T05:01:49.702Z,1003.70
2022-12-12T05:02:45.033Z,1003.70
2022-12-12T05:03:44.890Z,1003.71
2022-12-12T05:04:44.861Z,1003.68
2022-12-12T05:05:44.828Z,1003.71
2022-12-12T05:06:44.796Z,1003.69
2022-12-12T05:07:44.766Z,1003.72
2022-12-12T05:08:44.737Z,1003.72
2022-12-12T05:09:44.703Z,1003.68
2022-12-12T05:10:44.673Z,1003.73
2022-12-12T05:11:44.640Z,1003.72
2022-12-12T05:12:44.615Z,1003.74
2022-12-12T05:13:44.580Z,1003.71
2022-12-12T05:14:44.548Z,1003.77
2022-12-12T05:15:45.147Z,1003.76
2022-12-12T05:16:44.558Z,1003.81
2022-12-12T05:17:44.480Z,1003.77
2022-12-12T05:18:44.424Z,1003.83
2022-12-12T05:19:44.391Z,1003.84
2022-12-12T05:20:44.362Z,1003.79
2022-12-12T05:21:44.333Z,1003.80
2022-12-12T05:22:44.307Z,1003.78
2022-12-12T05:23:44.271Z,1003.82
2022-12-12T05:24:44.239Z,1003.82
2022-12-12T05:25:44.212Z,1003.79
2022-12-12T05:26:44.174Z,1003.77
2022-12-12T05:27:44.143Z,1003.81
2022-12-12T05:28:44.117Z,1003.77
2022-12-12T05:29:44.084Z,1003.78
2022-12-12T05:30:44.092Z,1003.73
2022-12-12T05:31:44.021Z,1003.76
2022-12-12T05:32:43.992Z,1003.76
2022-12-12T05:33:43.984Z,1003.80
2022-12-12T05:34:43.929Z,1003.81
2022-12-12T05:35:43.900Z,1003.79
2022-12-12T05:36:43.867Z,1003.81
2022-12-12T05:37:48.200Z,1003.80
2022-12-12T05:38:43.809Z,1003.83
2022-12-12T05:39:43.781Z,1003.82
2022-12-12T05:40:43.746Z,1003.79
2022-12-12T05:41:43.712Z,1003.75
2022-12-12T05:42:43.682Z,1003.77
2022-12-12T05:43:43.650Z,1003.72
2022-12-12T05:44:43.621Z,1003.72
2022-12-12T05:45:43.640Z,1003.72
2022-12-12T05:46:43.557Z,1003.72
2022-12-12T05:47:43.526Z,1003.71
2022-12-12T05:48:43.501Z,1003.72
2022-12-12T05:49:43.490Z,1003.70
2022-12-12T05:50:43.435Z,1003.70
2022-12-12T05:51:43.404Z,1003.74
2022-12-12T05:52:43.374Z,1003.71
2022-12-12T05:53:43.427Z,1003.74
2022-12-12T05:54:43.309Z,1003.78
2022-12-12T05:55:43.278Z,1003.73
2022-12-12T05:56:43.249Z,1003.78
2022-12-12T05:57:43.222Z,1003.83
2022-12-12T05:58:43.187Z,1003.79
2022-12-12T05:59:43.155Z,1003.82
2022-12-12T06:00:43.125Z,1003.80
2022-12-12T06:01:43.094Z,1003.82
2022-12-12T06:02:43.106Z,1003.82
2022-12-12T06:03:43.113Z,1003.84
2022-12-12T06:04:43.003Z,1003.79
2022-12-12T06:05:42.996Z,1003.85
2022-12-12T06:06:42.937Z,1003.88
2022-12-12T06:07:42.910Z,1003.92
2022-12-12T06:08:42.979Z,1003.92
2022-12-12T06:09:42.854Z,1003.89
2022-12-12T06:10:42.815Z,1003.90
2022-12-12T06:11:42.786Z,1003.89
2022-12-12T06:12:42.753Z,1003.91
2022-12-12T06:13:42.722Z,1003.95
2022-12-12T06:14:42.724Z,1003.99
2022-12-12T06:15:42.709Z,1004.01
2022-12-12T06:16:42.632Z,1004.01
2022-12-12T06:17:42.599Z,1004.00
2022-12-12T06:18:42.573Z,1004.05
2022-12-12T06:19:42.536Z,1004.05
2022-12-12T06:20:42.506Z,1004.03
2022-12-12T06:21:42.497Z,1004.03
2022-12-12T06:22:42.446Z,1004.04
2022-12-12T06:23:42.411Z,1003.99
2022-12-12T06:24:42.381Z,1004.02
2022-12-12T06:25:42.347Z,1004.04
2022-12-12T06:26:42.321Z,1004.04
2022-12-12T06:27:42.285Z,1004.04
2022-12-12T06:28:42.259Z,1004.07
2022-12-12T06:29:42.225Z,1004.00
2022-12-12T06:30:42.260Z,1004.02
2022-12-12T06:31:42.238Z,1004.00
2022-12-12T06:32:42.134Z,1003.98
2022-12-12T06:33:42.105Z,1003.99
2022-12-12T06:34:42.068Z,1004.00
2022-12-12T06:35:42.039Z,1003.96
2022-12-12T06:36:42.005Z,1003.97
2022-12-12T06:37:42.002Z,1003.97
2022-12-12T06:38:41.944Z,1003.99
2022-12-12T06:39:41.915Z,1003.98
2022-12-12T06:40:41.883Z,1003.99
2022-12-12T06:41:41.852Z,1004.00
2022-12-12T06:42:47.735Z,1003.98
2022-12-12T06:43:41.792Z,1003.97
2022-12-12T06:44:41.757Z,1003.95
2022-12-12T06:45:41.731Z,1003.96
2022-12-12T06:46:41.736Z,1003.97
2022-12-12T06:47:41.666Z,1004.00
2022-12-12T06:48:41.633Z,1004.00
2022-12-12T06:49:41.604Z,1004.03
2022-12-12T06:50:41.570Z,1004.06
2022-12-12T06:51:41.544Z,1004.05
2022-12-12T06:52:41.511Z,1004.02
2022-12-12T06:53:41.503Z,1004.05
2022-12-12T06:54:41.459Z,1004.03
2022-12-12T06:55:41.420Z,1004.09
2022-12-12T06:56:47.669Z,1004.01
2022-12-12T06:57:41.362Z,1004.07
2022-12-12T06:58:41.325Z,1004.06
2022-12-12T06:59:41.302Z,1004.04
2022-12-12T07:00:41.270Z,1004.03
2022-12-12T07:01:41.268Z,1004.07
2022-12-12T07:02:41.233Z,1004.09
2022-12-12T07:03:41.169Z,1004.13
2022-12-12T07:04:41.139Z,1004.12
2022-12-12T07:05:41.112Z,1004.10
2022-12-12T07:06:41.074Z,1004.11
2022-12-12T07:07:41.046Z,1004.14
2022-12-12T07:08:41.013Z,1004.09
2022-12-12T07:09:41.002Z,1004.11
2022-12-12T07:10:40.949Z,1004.10
2022-12-12T07:11:40.922Z,1004.07
2022-12-12T07:12:40.890Z,1004.09
2022-12-12T07:13:40.861Z,1004.08
2022-12-12T07:14:40.826Z,1004.08
2022-12-12T07:15:40.825Z,1004.11
2022-12-12T07:16:40.767Z,1004.13
2022-12-12T07:17:40.741Z,1004.14
2022-12-12T07:18:40.708Z,1004.12
2022-12-12T07:19:40.684Z,1004.11
2022-12-12T07:20:40.642Z,1004.12
2022-12-12T07:21:40.615Z,1004.12
2022-12-12T07:22:40.577Z,1004.09
2022-12-12T07:23:40.548Z,1004.08
2022-12-12T07:24:40.516Z,1004.08
2022-12-12T07:25:40.519Z,1004.09
2022-12-12T07:26:40.455Z,1004.11
2022-12-12T07:27:40.425Z,1004.14
2022-12-12T07:28:40.396Z,1004.15
2022-12-12T07:29:40.371Z,1004.13
2022-12-12T07:30:40.333Z,1004.19
2022-12-12T07:31:40.300Z,1004.16
2022-12-12T07:32:40.269Z,1004.19
2022-12-12T07:33:44.114Z,1004.16
2022-12-12T07:34:40.209Z,1004.17
2022-12-12T07:35:40.181Z,1004.18
2022-12-12T07:36:40.146Z,1004.20
2022-12-12T07:37:40.115Z,1004.20
2022-12-12T07:38:40.091Z,1004.19
2022-12-12T07:39:40.051Z,1004.21
2022-12-12T07:40:40.018Z,1004.23
2022-12-12T07:41:40.853Z,1004.24
2022-12-12T07:42:39.959Z,1004.27
2022-12-12T07:43:43.415Z,1004.22
2022-12-12T07:44:39.895Z,1004.21
2022-12-12T07:45:39.866Z,1004.21
2022-12-12T07:46:39.929Z,1004.20
2022-12-12T07:47:39.803Z,1004.21
2022-12-12T07:48:39.773Z,1004.23
2022-12-12T07:49:39.745Z,1004.20
2022-12-12T07:50:39.711Z,1004.21
2022-12-12T07:51:42.943Z,1004.19
2022-12-12T07:52:39.650Z,1004.28
2022-12-12T07:53:39.620Z,1004.23
2022-12-12T07:54:39.585Z,1004.30
2022-12-12T07:55:39.556Z,1004.23
2022-12-12T07:56:39.591Z,1004.27
2022-12-12T07:57:39.517Z,1004.28
2022-12-12T07:58:39.463Z,1004.30
2022-12-12T07:59:39.433Z,1004.28
2022-12-12T08:00:39.400Z,1004.30
2022-12-12T08:01:39.467Z,1004.31
2022-12-12T08:02:39.340Z,1004.32
2022-12-12T08:03:39.308Z,1004.26
2022-12-12T08:04:39.294Z,1004.33
2022-12-12T08:05:39.260Z,1004.34
2022-12-12T08:06:39.213Z,1004.38
2022-12-12T08:07:39.186Z,1004.41
2022-12-12T08:08:39.150Z,1004.40
2022-12-12T08:09:39.126Z,1004.46
2022-12-12T08:10:39.090Z,1004.49
2022-12-12T08:11:44.635Z,1004.49
2022-12-12T08:12:39.031Z,1004.50
2022-12-12T08:13:39.024Z,1004.50
2022-12-12T08:14:38.968Z,1004.50
2022-12-12T08:15:39.032Z,1004.49
2022-12-12T08:16:38.901Z,1004.49
2022-12-12T08:17:38.877Z,1004.55
2022-12-12T08:18:38.848Z,1004.51
2022-12-12T08:19:38.815Z,1004.52
2022-12-12T08:20:38.782Z,1004.51
2022-12-12T08:21:38.751Z,1004.52
2022-12-12T08:22:38.717Z,1004.53
2022-12-12T08:23:38.689Z,1004.54
2022-12-12T08:24:38.658Z,1004.55
2022-12-12T08:25:38.744Z,1004.54
2022-12-12T08:26:38.594Z,1004.49
2022-12-12T08:27:38.562Z,1004.50
2022-12-12T08:28:38.531Z,1004.50
2022-12-12T08:29:38.525Z,1004.55
2022-12-12T08:30:38.471Z,1004.46
2022-12-12T08:31:38.508Z,1004.55
2022-12-12T08:32:38.410Z,1004.57
2022-12-12T08:33:38.376Z,1004.54
2022-12-12T08:34:38.347Z,1004.63
2022-12-12T08:35:38.315Z,1004.68
2022-12-12T08:36:38.286Z,1004.61
2022-12-12T08:37:38.253Z,1004.67
2022-12-12T08:38:38.220Z,1004.71
2022-12-12T08:39:38.201Z,1004.73
2022-12-12T08:40:38.196Z,1004.71
2022-12-12T08:41:38.218Z,1004.70
2022-12-12T08:42:38.202Z,1004.72
2022-12-12T08:43:38.065Z,1004.65
2022-12-12T08:44:38.037Z,1004.59
2022-12-12T08:45:38.027Z,1004.62
2022-12-12T08:46:38.047Z,1004.65
2022-12-12T08:47:37.942Z,1004.67
2022-12-12T08:48:37.910Z,1004.66
2022-12-12T08:49:37.885Z,1004.73
2022-12-12T08:50:37.849Z,1004.68
2022-12-12T08:51:37.833Z,1004.71
2022-12-12T08:52:37.787Z,1004.73
2022-12-12T08:53:37.761Z,1004.73
2022-12-12T08:54:37.723Z,1004.67
2022-12-12T08:55:37.697Z,1004.69
2022-12-12T08:56:37.662Z,1004.71
2022-12-12T08:57:37.632Z,1004.75
2022-12-12T08:58:37.602Z,1004.71
2022-12-12T08:59:37.583Z,1004.73
2022-12-12T09:00:37.542Z,1004.75
2022-12-12T09:01:37.798Z,1004.74
2022-12-12T09:02:37.794Z,1004.79
2022-12-12T09:03:37.510Z,1004.80
2022-12-12T09:04:37.546Z,1004.79
2022-12-12T09:05:37.652Z,1004.81
2022-12-12T09:06:37.455Z,1004.76
2022-12-12T09:07:37.379Z,1004.80
2022-12-12T09:08:37.362Z,1004.77
2022-12-12T09:09:37.296Z,1004.81
2022-12-12T09:10:37.285Z,1004.77
2022-12-12T09:11:37.241Z,1004.78
2022-12-12T09:12:41.704Z,1004.83
2022-12-12T09:13:37.217Z,1004.80
2022-12-12T09:14:37.150Z,1004.85
2022-12-12T09:15:37.169Z,1004.89
2022-12-12T09:16:37.230Z,1004.88
2022-12-12T09:17:37.089Z,1004.87
2022-12-12T09:18:37.058Z,1004.93
2022-12-12T09:19:37.038Z,1004.93
2022-12-12T09:20:37.015Z,1004.90
2022-12-12T09:21:36.932Z,1004.86
2022-12-12T09:22:36.906Z,1004.93
2022-12-12T09:23:36.870Z,1004.93
2022-12-12T09:24:36.869Z,1004.93
2022-12-12T09:25:40.043Z,1004.94
2022-12-12T09:26:36.847Z,1004.93
2022-12-12T09:27:36.766Z,1004.95
2022-12-12T09:28:36.732Z,1004.92
2022-12-12T09:29:36.656Z,1004.92
2022-12-12T09:30:36.672Z,1004.97
2022-12-12T09:31:36.756Z,1004.97
2022-12-12T09:32:36.593Z,1004.99
2022-12-12T09:33:36.593Z,1004.93
2022-12-12T09:34:36.578Z,1004.92
2022-12-12T09:35:36.459Z,1004.95
2022-12-12T09:36:36.432Z,1004.91
2022-12-12T09:37:36.400Z,1004.94
2022-12-12T09:38:36.367Z,1004.91
2022-12-12T09:39:36.337Z,1004.91
2022-12-12T09:40:36.301Z,1004.88
2022-12-12T09:41:36.282Z,1004.89
2022-12-12T09:42:36.241Z,1004.93
2022-12-12T09:43:36.217Z,1004.94
2022-12-12T09:44:36.189Z,1004.85
2022-12-12T09:45:36.216Z,1004.90
2022-12-12T09:46:36.133Z,1004.92
2022-12-12T09:47:36.087Z,1004.88
2022-12-12T09:48:36.058Z,1004.88
2022-12-12T09:49:43.041Z,1004.85
2022-12-12T09:50:35.992Z,1004.85
2022-12-12T09:51:35.970Z,1004.84
2022-12-12T09:52:35.932Z,1004.85
2022-12-12T09:53:35.901Z,1004.86
2022-12-12T09:54:35.873Z,1004.84
2022-12-12T09:55:35.841Z,1004.88
2022-12-12T09:56:35.810Z,1004.83
2022-12-12T09:57:35.795Z,1004.87
2022-12-12T09:58:35.748Z,1004.86
2022-12-12T09:59:35.718Z,1004.86
2022-12-12T10:00:35.778Z,1004.91
2022-12-12T10:01:35.662Z,1004.89
2022-12-12T10:02:35.710Z,1004.92
2022-12-12T10:03:35.592Z,1004.92
2022-12-12T10:04:35.559Z,1004.95
2022-12-12T10:05:35.555Z,1004.93
2022-12-12T10:06:37.765Z,1004.99
2022-12-12T10:07:35.468Z,1004.93
2022-12-12T10:08:35.478Z,1004.98
2022-12-12T10:09:35.411Z,1004.99
2022-12-12T10:10:35.374Z,1004.99
2022-12-12T10:11:35.348Z,1005.03
2022-12-12T10:12:35.315Z,1005.02
2022-12-12T10:13:35.292Z,1004.99
2022-12-12T10:14:35.262Z,1005.01
2022-12-12T10:15:35.222Z,1005.00
2022-12-12T10:16:35.278Z,1004.96
2022-12-12T10:17:35.172Z,1004.95
2022-12-12T10:18:35.127Z,1004.94
2022-12-12T10:19:35.100Z,1004.86
2022-12-12T10:20:35.066Z,1004.88
2022-12-12T10:21:35.052Z,1004.86
2022-12-12T10:22:35.013Z,1004.87
2022-12-12T10:23:34.979Z,1004.86
2022-12-12T10:24:34.944Z,1004.85
2022-12-12T10:25:34.913Z,1004.83
2022-12-12T10:26:34.887Z,1004.81
2022-12-12T10:27:34.851Z,1004.84
2022-12-12T10:28:34.846Z,1004.80
2022-12-12T10:29:41.047Z,1004.84
2022-12-12T10:30:34.759Z,1004.84
2022-12-12T10:31:34.785Z,1004.88
2022-12-12T10:32:34.697Z,1004.88
2022-12-12T10:33:34.669Z,1004.87
2022-12-12T10:34:34.635Z,1004.89
2022-12-12T10:35:34.607Z,1004.87
2022-12-12T10:36:34.572Z,1004.84
2022-12-12T10:37:34.566Z,1004.85
2022-12-12T10:38:34.519Z,1004.87
2022-12-12T10:39:34.480Z,1004.89
2022-12-12T10:40:34.447Z,1004.88
2022-12-12T10:41:34.427Z,1004.88
2022-12-12T10:42:34.395Z,1004.89
2022-12-12T10:43:34.358Z,1004.91
2022-12-12T10:44:34.326Z,1004.88
2022-12-12T10:45:34.389Z,1004.86
2022-12-12T10:46:34.452Z,1004.87
2022-12-12T10:47:34.284Z,1004.90
2022-12-12T10:48:34.253Z,1004.83
2022-12-12T10:49:34.202Z,1004.84
2022-12-12T10:50:34.140Z,1004.90
2022-12-12T10:51:34.107Z,1004.84
2022-12-12T10:52:34.113Z,1004.84
2022-12-12T10:53:34.068Z,1004.85
2022-12-12T10:54:34.015Z,1004.87
2022-12-12T10:55:33.984Z,1004.88
2022-12-12T10:56:33.967Z,1004.87
2022-12-12T10:57:33.924Z,1004.83
2022-12-12T10:58:33.895Z,1004.86
2022-12-12T10:59:33.870Z,1004.90
2022-12-12T11:00:33.834Z,1004.89
2022-12-12T11:02:07.875Z,1004.93
2022-12-12T11:02:34.055Z,1004.93
2022-12-12T11:03:33.810Z,1004.89
2022-12-12T11:04:33.708Z,1004.90
2022-12-12T11:05:33.677Z,1004.90
2022-12-12T11:06:33.652Z,1004.89
2022-12-12T11:07:33.613Z,1004.88
2022-12-12T11:08:33.621Z,1004.82
2022-12-12T11:09:33.575Z,1004.83
2022-12-12T11:10:34.505Z,1004.83
2022-12-12T11:11:33.594Z,1004.82
2022-12-12T11:12:33.477Z,1004.84
2022-12-12T11:13:33.429Z,1004.82
2022-12-12T11:14:33.405Z,1004.86
2022-12-12T11:15:33.376Z,1004.87
2022-12-12T11:16:33.382Z,1004.82
2022-12-12T11:17:33.307Z,1004.81
2022-12-12T11:18:33.278Z,1004.82
2022-12-12T11:19:33.244Z,1004.79
2022-12-12T11:20:33.217Z,1004.78
2022-12-12T11:21:33.186Z,1004.78
2022-12-12T11:22:33.154Z,1004.79
2022-12-12T11:23:33.129Z,1004.82
2022-12-12T11:24:33.095Z,1004.77
2022-12-12T11:25:33.111Z,1004.79
2022-12-12T11:26:33.034Z,1004.81
2022-12-12T11:27:32.998Z,1004.76
2022-12-12T11:28:32.970Z,1004.75
2022-12-12T11:29:32.938Z,1004.77
2022-12-12T11:30:32.907Z,1004.74
2022-12-12T11:31:32.947Z,1004.74
2022-12-12T11:32:32.873Z,1004.74
2022-12-12T11:33:32.818Z,1004.76
2022-12-12T11:34:34.137Z,1004.77
2022-12-12T11:35:32.757Z,1004.72
2022-12-12T11:36:32.725Z,1004.73
2022-12-12T11:37:32.693Z,1004.74
2022-12-12T11:38:32.663Z,1004.75
2022-12-12T11:39:32.633Z,1004.75
2022-12-12T11:40:32.603Z,1004.74
2022-12-12T11:41:32.597Z,1004.74
2022-12-12T11:42:32.540Z,1004.73
2022-12-12T11:43:32.510Z,1004.68
2022-12-12T11:44:32.483Z,1004.65
2022-12-12T11:45:32.518Z,1004.64
2022-12-12T11:46:32.425Z,1004.61
2022-12-12T11:47:32.386Z,1004.64
2022-12-12T11:48:32.357Z,1004.57
2022-12-12T11:49:32.376Z,1004.58
2022-12-12T11:50:32.294Z,1004.59
2022-12-12T11:51:32.275Z,1004.58
2022-12-12T11:52:32.235Z,1004.55
2022-12-12T11:53:32.203Z,1004.57
2022-12-12T11:54:32.173Z,1004.54
2022-12-12T11:55:32.142Z,1004.57
2022-12-12T11:56:32.111Z,1004.56
2022-12-12T11:57:32.137Z,1004.54
2022-12-12T11:58:32.051Z,1004.58
2022-12-12T11:59:32.021Z,1004.57
2022-12-12T12:00:32.000Z,1004.55
2022-12-12T12:01:31.982Z,1004.55
2022-12-12T12:02:31.938Z,1004.57
2022-12-12T12:03:31.937Z,1004.56
2022-12-12T12:04:31.901Z,1004.57
2022-12-12T12:05:31.836Z,1004.57